Terminal Aerodrome Forecast
Issued by NWS Cleveland, OH

Home | Current Version | Previous Version | Text Only | Print | Product List | Glossary Off
Versions: 1 2 3 4 5 6 7 8 9 10 11 12 13 14

000
FTUS41 KCLE 210540
TAFERI
TAF
KERI 210540Z 2106/2206 18009KT P6SM VCTS SCT150CB
     FM210800 19009KT P6SM BKN090
     FM211200 19009KT P6SM SCT200
     FM211400 23007KT P6SM SCT150
     FM212200 00000KT P6SM FEW250
     FM220500 19009KT P6SM BKN150=

USA.gov is the U.S. government's official web portal to all federal, state and local government web resources and services.